Time;durP1;ratioP1;P1;durP2;ratioP2;P2;SDS_P1;SDS_P2;PMS_P1;PMS_P2;Temp;Humidity;BMP_temperature;BMP_pressure;BME280_temperature;BME280_humidity;BME280_pressure;Samples;Min_cycle;Max_cycle;Signal;HPM_P1;HPM_P2
2022/05/02 03:01:27;;;;;;;2.42;2.22;;;20.40;48.70;;;;;;5479303;23;45857;-62
2022/05/02 03:03:53;;;;;;;2.40;2.20;;;20.40;48.80;;;;;;4903584;28;45662;-59
2022/05/02 03:06:19;;;;;;;2.35;2.15;;;20.40;48.70;;;;;;4918738;28;45606;-59
2022/05/02 03:08:44;;;;;;;2.58;2.38;;;20.40;48.70;;;;;;4956101;28;45231;-60
2022/05/02 03:11:10;;;;;;;2.30;2.10;;;20.40;48.70;;;;;;4961349;28;45337;-61
2022/05/02 03:13:36;;;;;;;3.63;2.20;;;20.50;48.70;;;;;;4919294;28;45372;-61
2022/05/02 03:16:03;;;;;;;3.50;2.35;;;20.50;48.70;;;;;;4934220;28;45652;-60
2022/05/02 03:18:28;;;;;;;2.95;2.67;;;20.40;48.70;;;;;;4953224;28;44791;-62
2022/05/02 03:20:54;;;;;;;2.65;2.45;;;20.50;48.70;;;;;;4953710;28;45480;-61
2022/05/02 03:23:20;;;;;;;3.00;2.70;;;20.50;48.80;;;;;;4937204;28;45349;-61
2022/05/02 03:25:46;;;;;;;3.08;2.85;;;20.40;48.70;;;;;;4919275;28;45207;-61
2022/05/02 03:28:11;;;;;;;2.40;2.20;;;20.40;48.70;;;;;;4935988;28;45412;-60
2022/05/02 03:30:37;;;;;;;2.35;2.15;;;20.40;48.70;;;;;;4910627;28;45390;-60
2022/05/02 03:33:03;;;;;;;2.75;2.55;;;20.40;48.70;;;;;;4933992;28;46660;-60
2022/05/02 03:35:29;;;;;;;2.55;2.35;;;20.40;48.70;;;;;;4951924;28;45277;-61
2022/05/02 03:37:54;;;;;;;2.80;2.42;;;20.40;48.70;;;;;;4953307;28;45275;-61
2022/05/02 03:40:20;;;;;;;2.40;2.20;;;20.40;48.70;;;;;;4930063;28;45972;-61
2022/05/02 03:42:46;;;;;;;2.50;2.30;;;20.40;48.70;;;;;;4930572;28;45403;-59
2022/05/02 03:45:11;;;;;;;2.65;2.45;;;20.40;48.70;;;;;;4938912;28;45170;-61
2022/05/02 03:47:37;;;;;;;2.80;2.55;;;20.40;48.70;;;;;;4951963;28;45938;-61
2022/05/02 03:50:03;;;;;;;2.92;2.72;;;20.40;48.70;;;;;;4949809;28;45100;-60
2022/05/02 03:52:28;;;;;;;3.15;2.85;;;20.40;48.70;;;;;;4918671;28;46794;-61
2022/05/02 03:54:54;;;;;;;2.72;2.53;;;20.40;48.70;;;;;;4948581;28;45415;-59
2022/05/02 03:57:20;;;;;;;2.53;2.33;;;20.40;48.70;;;;;;4931994;28;45490;-60
2022/05/02 03:59:47;;;;;;;2.78;2.20;;;20.40;48.80;;;;;;4931069;28;45256;-62
2022/05/02 04:02:12;;;;;;;2.58;2.38;;;20.40;48.70;;;;;;4948118;28;46682;-60
2022/05/02 04:04:38;;;;;;;2.65;2.45;;;20.40;48.70;;;;;;4944002;28;45416;-60
2022/05/02 04:07:04;;;;;;;2.22;2.03;;;20.40;48.70;;;;;;4934823;28;45306;-61
2022/05/02 04:09:30;;;;;;;2.40;2.20;;;20.40;48.70;;;;;;4949793;28;45429;-62
2022/05/02 04:11:56;;;;;;;2.67;2.47;;;20.40;48.70;;;;;;4932528;28;46589;-61
2022/05/02 04:14:22;;;;;;;2.20;2.03;;;20.40;48.70;;;;;;4911610;28;44882;-61
2022/05/02 04:16:49;;;;;;;2.50;2.30;;;20.40;48.80;;;;;;4949266;28;45615;-61
2022/05/02 04:19:16;;;;;;;2.78;2.45;;;20.40;48.80;;;;;;4931944;28;45610;-62
2022/05/02 04:21:42;;;;;;;2.70;2.50;;;20.40;48.70;;;;;;4914038;28;45555;-61
2022/05/02 04:24:07;;;;;;;2.50;2.30;;;20.40;48.80;;;;;;4928666;28;45560;-60
2022/05/02 04:26:33;;;;;;;2.45;2.25;;;20.40;48.70;;;;;;4950359;28;45391;-61
2022/05/02 04:28:59;;;;;;;2.38;2.17;;;20.40;48.70;;;;;;4950625;28;45677;-61
2022/05/02 04:31:25;;;;;;;3.72;2.38;;;20.40;48.80;;;;;;4941524;28;45372;-61
2022/05/02 04:33:50;;;;;;;2.72;2.40;;;20.40;48.70;;;;;;4923529;28;44979;-60
2022/05/02 04:36:16;;;;;;;2.88;2.40;;;20.40;48.90;;;;;;4927891;28;45574;-61
2022/05/02 04:38:41;;;;;;;2.60;2.40;;;20.40;48.70;;;;;;4931404;28;45083;-61
2022/05/02 04:41:07;;;;;;;2.30;2.10;;;20.40;48.70;;;;;;4949433;28;46589;-60
2022/05/02 04:43:33;;;;;;;2.47;2.28;;;20.40;48.70;;;;;;4946313;28;45388;-61
2022/05/02 04:45:58;;;;;;;2.28;2.10;;;20.30;48.80;;;;;;4925677;28;45348;-61
2022/05/02 04:48:24;;;;;;;2.90;2.60;;;20.40;48.70;;;;;;4926570;28;45548;-59
2022/05/02 04:50:50;;;;;;;2.92;2.30;;;20.40;48.80;;;;;;4938422;28;45792;-61
2022/05/02 04:53:15;;;;;;;2.72;2.53;;;20.30;48.80;;;;;;4948789;28;45186;-61
2022/05/02 04:55:41;;;;;;;2.33;2.13;;;20.30;48.70;;;;;;4948635;28;44843;-61
2022/05/02 04:58:06;;;;;;;2.70;2.50;;;20.30;48.70;;;;;;4933838;28;45194;-61
2022/05/02 05:00:32;;;;;;;2.20;2.00;;;20.40;48.80;;;;;;4931555;28;46480;-61
2022/05/02 05:02:57;;;;;;;2.50;2.30;;;20.30;48.80;;;;;;4916613;28;45411;-61
2022/05/02 05:05:24;;;;;;;2.53;2.33;;;20.30;48.80;;;;;;4952221;28;45553;-61
2022/05/02 05:07:49;;;;;;;2.05;1.92;;;20.30;48.80;;;;;;4914873;28;44889;-61
2022/05/02 05:10:16;;;;;;;3.35;2.40;;;20.30;48.90;;;;;;4951502;28;47929;-59
2022/05/02 05:13:07;;;;;;;2.67;2.47;;;20.30;48.90;;;;;;4949697;28;44937;-60
2022/05/02 05:19:08;;;;;;;2.38;2.17;;;20.30;48.90;;;;;;4938013;28;45303;-60
2022/05/02 05:22:03;;;;;;;2.38;2.15;;;20.30;49.00;;;;;;4917767;28;45192;-61
2022/05/02 05:24:47;;;;;;;2.22;2.03;;;20.30;48.90;;;;;;4925641;28;45632;-61
2022/05/02 05:27:26;;;;;;;2.28;2.08;;;20.30;48.80;;;;;;4940319;28;46027;-60
2022/05/02 05:30:03;;;;;;;2.53;2.33;;;20.30;48.80;;;;;;4949870;28;46396;-61
2022/05/02 05:32:37;;;;;;;2.50;2.30;;;20.30;48.80;;;;;;4945016;28;45387;-61
2022/05/02 05:35:07;;;;;;;2.25;2.05;;;20.30;48.70;;;;;;4948750;28;45124;-61
2022/05/02 05:37:35;;;;;;;2.30;2.10;;;20.40;48.70;;;;;;4951600;28;45406;-61
2022/05/02 05:40:25;;;;;;;2.15;2.00;;;20.40;48.70;;;;;;4954024;28;45316;-61
2022/05/02 05:42:51;;;;;;;2.53;2.33;;;20.40;48.70;;;;;;4933025;28;45462;-61
2022/05/02 05:45:23;;;;;;;2.40;2.20;;;20.30;48.70;;;;;;4951684;28;44731;-60
2022/05/02 05:48:11;;;;;;;2.88;2.63;;;20.30;48.70;;;;;;4941333;28;45172;-62
2022/05/02 05:50:39;;;;;;;2.75;2.55;;;20.30;48.80;;;;;;4954170;28;45205;-59
2022/05/02 05:53:15;;;;;;;2.42;2.22;;;20.30;48.80;;;;;;4926851;28;45505;-59
2022/05/02 05:56:00;;;;;;;2.20;2.00;;;20.40;48.80;;;;;;4935807;28;45226;-60
2022/05/02 05:58:25;;;;;;;2.20;2.00;;;20.40;48.80;;;;;;4918529;28;45235;-61
2022/05/02 06:00:52;;;;;;;2.60;2.38;;;20.40;48.80;;;;;;4949913;28;44940;-61
2022/05/02 06:03:24;;;;;;;3.17;2.40;;;20.40;48.70;;;;;;4909251;28;45638;-61
2022/05/02 06:05:49;;;;;;;2.65;2.40;;;20.40;48.70;;;;;;4951858;28;45596;-61
2022/05/02 06:08:20;;;;;;;2.30;2.10;;;20.40;48.70;;;;;;4933289;28;45353;-61
2022/05/02 06:10:46;;;;;;;2.30;2.10;;;20.40;48.60;;;;;;4944904;28;45186;-59
2022/05/02 06:13:16;;;;;;;2.38;2.17;;;20.40;48.60;;;;;;4942612;28;46849;-60
2022/05/02 06:18:28;;;;;;;2.67;2.40;;;20.50;48.60;;;;;;4920526;28;45356;-60
2022/05/02 06:20:56;;;;;;;2.67;2.10;;;20.50;48.60;;;;;;4912279;28;45432;-61
2022/05/02 06:23:23;;;;;;;2.85;2.53;;;20.50;48.50;;;;;;4931893;28;45302;-60
2022/05/02 06:25:49;;;;;;;2.72;2.22;;;20.60;48.50;;;;;;4932023;28;45482;-62
2022/05/02 06:28:15;;;;;;;2.45;2.25;;;20.60;48.50;;;;;;4932672;28;45407;-61
2022/05/02 06:30:42;;;;;;;2.50;2.30;;;20.60;48.40;;;;;;4912215;28;45200;-61
2022/05/02 06:33:12;;;;;;;2.55;2.35;;;20.60;48.30;;;;;;4928239;28;46145;-62
2022/05/02 06:36:07;;;;;;;2.50;2.30;;;20.60;48.30;;;;;;4947642;28;45287;-61
2022/05/02 06:38:51;;;;;;;2.38;2.20;;;20.70;48.30;;;;;;4932003;28;45194;-62
2022/05/02 06:41:41;;;;;;;2.40;2.20;;;20.70;48.20;;;;;;4946363;28;44766;-62
2022/05/02 06:44:34;;;;;;;2.70;2.50;;;20.70;48.20;;;;;;4946533;28;46783;-61
2022/05/02 06:47:29;;;;;;;2.60;2.40;;;20.70;48.20;;;;;;4946601;28;45190;-60
2022/05/02 06:49:56;;;;;;;2.88;2.50;;;20.70;48.10;;;;;;4927734;28;44705;-60
2022/05/02 06:52:31;;;;;;;2.35;1.88;;;20.70;48.20;;;;;;4931229;28;45187;-60
2022/05/02 06:55:35;;;;;;;2.50;2.30;;;20.70;48.10;;;;;;4914785;28;45298;-59
2022/05/02 06:58:19;;;;;;;2.80;2.50;;;20.80;48.00;;;;;;4916145;28;45674;-59
2022/05/02 07:00:52;;;;;;;2.35;2.15;;;20.80;48.00;;;;;;4948765;28;45209;-60
2022/05/02 07:03:33;;;;;;;2.55;2.35;;;20.80;48.60;;;;;;4902220;28;45178;-61
2022/05/02 07:06:32;;;;;;;2.35;2.15;;;20.90;48.00;;;;;;4925845;28;45097;-60
2022/05/02 07:09:01;;;;;;;2.20;2.00;;;20.90;47.90;;;;;;4931389;28;45097;-59
2022/05/02 07:11:55;;;;;;;2.42;2.13;;;20.90;48.10;;;;;;4924970;28;45426;-59
2022/05/02 07:14:41;;;;;;;2.65;2.30;;;20.90;48.00;;;;;;4912548;28;44898;-61
2022/05/02 07:17:11;;;;;;;2.40;2.20;;;20.90;47.90;;;;;;4908962;28;45506;-62
2022/05/02 07:19:54;;;;;;;2.40;2.20;;;20.90;47.90;;;;;;4928186;28;45391;-61
2022/05/02 07:22:32;;;;;;;2.65;1.98;;;20.90;47.90;;;;;;4910703;28;45476;-62
2022/05/02 07:25:13;;;;;;;2.25;2.05;;;20.90;47.90;;;;;;4947036;28;45267;-62
2022/05/02 07:27:42;;;;;;;2.05;1.90;;;21.00;47.80;;;;;;4932759;28;45576;-62
2022/05/02 07:30:07;;;;;;;2.47;1.92;;;20.90;47.90;;;;;;4927090;28;45339;-62
2022/05/02 07:32:33;;;;;;;2.15;2.00;;;21.00;47.90;;;;;;4914845;28;45665;-60
2022/05/02 07:34:59;;;;;;;2.13;2.00;;;21.00;47.80;;;;;;4929980;28;44939;-61
2022/05/02 07:37:25;;;;;;;2.28;2.08;;;21.00;47.80;;;;;;4930610;28;45847;-60
2022/05/02 07:39:51;;;;;;;2.58;2.38;;;21.00;47.70;;;;;;4926717;28;45645;-62
2022/05/02 07:42:18;;;;;;;2.20;2.00;;;21.10;47.70;;;;;;4929235;28;45486;-60
2022/05/02 07:44:44;;;;;;;2.28;2.08;;;21.10;47.70;;;;;;4929019;28;45120;-59
2022/05/02 07:47:13;;;;;;;2.42;2.22;;;21.10;47.70;;;;;;4945228;28;45679;-60
2022/05/02 07:49:39;;;;;;;2.50;2.30;;;21.10;48.30;;;;;;4931415;28;45271;-61
2022/05/02 07:52:05;;;;;;;2.20;2.00;;;21.10;47.70;;;;;;4920388;28;45268;-61
2022/05/02 07:54:35;;;;;;;2.72;2.47;;;21.10;47.60;;;;;;4918197;28;46135;-62
2022/05/02 07:57:02;;;;;;;2.58;2.38;;;21.20;47.60;;;;;;4935644;28;45743;-61
2022/05/02 07:59:38;;;;;;;2.50;2.30;;;21.20;47.60;;;;;;4931821;28;45242;-61
2022/05/02 08:02:05;;;;;;;2.75;2.38;;;21.20;47.50;;;;;;4953848;28;45235;-61
2022/05/02 08:04:30;;;;;;;3.60;2.03;;;21.20;47.60;;;;;;4921272;28;44858;-62
2022/05/02 08:07:16;;;;;;;2.28;2.08;;;21.20;47.50;;;;;;4949257;28;45291;-62
2022/05/02 08:09:57;;;;;;;2.33;2.13;;;21.20;47.50;;;;;;4916912;28;44951;-62
2022/05/02 08:12:25;;;;;;;2.72;2.50;;;21.20;47.50;;;;;;4950478;28;45197;-62
2022/05/02 08:15:27;;;;;;;2.28;2.03;;;21.20;47.50;;;;;;4932557;28;45243;-62
2022/05/02 08:18:17;;;;;;;2.40;2.20;;;21.30;47.40;;;;;;4908939;28;46451;-61
2022/05/02 08:20:56;;;;;;;2.58;2.35;;;21.30;47.40;;;;;;4947598;28;44746;-62
2022/05/02 08:29:50;;;;;;;9.13;3.03;;;21.30;47.40;;;;;;4937916;28;45125;-61
2022/05/02 08:32:36;;;;;;;4.82;3.13;;;21.40;46.60;;;;;;4950096;28;45239;-61
2022/05/02 08:35:22;;;;;;;8.02;3.83;;;21.50;45.70;;;;;;4949301;28;45726;-61
2022/05/02 08:38:07;;;;;;;4.78;3.67;;;21.50;45.40;;;;;;4908889;28;45281;-61
2022/05/02 08:40:52;;;;;;;4.78;4.00;;;21.50;45.20;;;;;;4930128;28;47282;-61
2022/05/02 08:43:50;;;;;;;5.15;3.92;;;21.50;45.20;;;;;;4947813;28;45196;-60
2022/05/02 08:46:34;;;;;;;9.18;3.90;;;21.50;45.00;;;;;;4944957;28;45123;-61
2022/05/02 08:49:37;;;;;;;5.30;3.95;;;21.50;45.00;;;;;;4932184;28;45331;-60
2022/05/02 08:52:20;;;;;;;5.53;3.95;;;21.60;45.00;;;;;;4930411;28;47105;-61
2022/05/02 08:55:10;;;;;;;9.98;3.47;;;21.60;45.10;;;;;;4950170;28;45475;-61
2022/05/02 08:57:36;;;;;;;5.15;3.20;;;21.60;45.30;;;;;;4933541;28;45240;-61
2022/05/02 09:00:03;;;;;;;3.95;3.40;;;21.60;45.50;;;;;;4950579;28;46054;-61
2022/05/02 09:02:47;;;;;;;6.63;4.38;;;21.60;45.50;;;;;;4932193;28;45599;-62
2022/05/02 09:05:31;;;;;;;7.68;3.55;;;21.60;45.50;;;;;;4951185;28;46184;-62
2022/05/02 09:08:16;;;;;;;3.85;2.88;;;21.60;45.20;;;;;;4949353;28;45188;-61
2022/05/02 09:11:00;;;;;;;4.85;3.65;;;21.60;45.50;;;;;;4929267;28;45630;-62
2022/05/02 09:13:53;;;;;;;7.95;4.05;;;21.60;45.60;;;;;;4932102;28;46250;-62
2022/05/02 09:16:53;;;;;;;5.82;3.75;;;21.60;45.50;;;;;;4899496;28;45131;-61
2022/05/02 09:19:21;;;;;;;8.20;3.30;;;21.60;45.30;;;;;;4931458;28;44873;-59
2022/05/02 09:22:32;;;;;;;5.35;3.78;;;21.60;45.50;;;;;;4947880;28;45766;-61
2022/05/02 09:25:04;;;;;;;5.47;3.55;;;21.60;45.30;;;;;;4929418;28;45475;-61
2022/05/02 09:27:46;;;;;;;4.77;3.17;;;21.60;45.60;;;;;;4930675;28;44661;-61
2022/05/02 09:30:20;;;;;;;5.53;3.72;;;21.60;45.40;;;;;;4934975;28;44837;-61
2022/05/02 09:33:14;;;;;;;5.30;3.53;;;21.60;45.50;;;;;;4920866;28;45598;-62
2022/05/02 09:35:52;;;;;;;;;;;21.60;45.10;;;;;;4937259;28;46618;-61
2022/05/02 09:38:25;;;;;;;4.70;3.08;;;21.60;45.10;;;;;;4954964;28;45346;-60
2022/05/02 09:41:01;;;;;;;4.05;3.58;;;21.60;45.50;;;;;;4935871;28;45349;-61
2022/05/02 09:50:12;;;;;;;6.85;3.90;;;21.70;45.60;;;;;;4940870;28;46644;-63
2022/05/02 09:53:02;;;;;;;5.38;3.55;;;21.70;45.40;;;;;;4929470;28;45252;-61
2022/05/02 09:58:41;;;;;;;5.13;3.42;;;21.70;45.50;;;;;;4941606;28;45446;-60
2022/05/02 10:01:17;;;;;;;6.07;3.25;;;21.70;45.60;;;;;;4908794;28;44790;-59
2022/05/02 10:03:58;;;;;;;3.92;3.17;;;21.70;45.50;;;;;;4933305;28;45298;-61
2022/05/02 10:06:50;;;;;;;6.75;3.20;;;21.70;45.50;;;;;;4953899;28;45340;-58
2022/05/02 10:09:21;;;;;;;7.47;3.40;;;21.70;45.30;;;;;;4935139;28;45457;-61
2022/05/02 10:11:50;;;;;;;4.53;3.15;;;21.70;45.40;;;;;;4949580;28;44904;-61
2022/05/02 10:14:40;;;;;;;5.10;3.42;;;21.70;45.50;;;;;;4952385;28;45247;-61
2022/05/02 10:17:07;;;;;;;4.78;3.17;;;21.80;45.40;;;;;;4947174;28;45748;-60
2022/05/02 10:19:59;;;;;;;6.00;3.38;;;21.80;45.50;;;;;;4951456;28;45328;-61
2022/05/02 10:22:35;;;;;;;5.40;3.22;;;21.80;45.30;;;;;;4940632;28;45140;-61
2022/05/02 10:25:02;;;;;;;4.00;2.90;;;21.80;45.30;;;;;;4950880;28;45299;-61
2022/05/02 10:27:38;;;;;;;8.95;3.30;;;21.80;45.30;;;;;;4949032;28;45279;-62
2022/05/02 10:30:06;;;;;;;11.52;3.83;;;21.90;45.30;;;;;;4933538;28;45665;-60
2022/05/02 10:32:50;;;;;;;13.98;4.22;;;21.90;45.30;;;;;;4937965;28;45363;-59
2022/05/02 10:35:17;;;;;;;9.95;3.60;;;22.00;45.10;;;;;;4955078;28;45201;-61
2022/05/02 10:37:57;;;;;;;7.30;3.70;;;22.00;45.40;;;;;;4927566;28;45254;-61
2022/05/02 10:40:53;;;;;;;6.93;3.42;;;22.00;45.40;;;;;;4928380;28;45261;-60
2022/05/02 10:43:25;;;;;;;9.63;3.60;;;22.00;45.40;;;;;;4925549;28;45214;-61
2022/05/02 10:45:51;;;;;;;9.98;4.13;;;22.00;45.30;;;;;;4909349;28;45532;-61
2022/05/02 10:48:17;;;;;;;7.97;3.03;;;22.00;45.40;;;;;;4936870;28;44973;-61
2022/05/02 10:51:21;;;;;;;8.27;3.63;;;22.00;45.40;;;;;;4929716;28;47655;-59
2022/05/02 10:53:58;;;;;;;7.80;3.50;;;22.00;45.20;;;;;;4946755;28;45099;-59
2022/05/02 10:56:33;;;;;;;6.28;3.67;;;22.00;45.30;;;;;;4935818;28;45136;-61
2022/05/02 10:59:01;;;;;;;6.72;3.42;;;22.00;45.30;;;;;;4958977;28;44782;-61
2022/05/02 11:02:00;;;;;;;5.72;3.38;;;22.00;45.30;;;;;;4934710;28;45475;-61
2022/05/02 11:04:47;;;;;;;12.13;3.58;;;22.00;45.10;;;;;;4953993;28;45451;-60
2022/05/02 11:07:36;;;;;;;10.10;3.70;;;22.00;45.30;;;;;;4939870;28;45153;-61
2022/05/02 11:10:07;;;;;;;9.32;3.72;;;22.00;45.30;;;;;;4958607;28;44922;-59
2022/05/02 11:12:40;;;;;;;6.32;3.53;;;22.00;45.40;;;;;;4937322;28;45794;-60
2022/05/02 11:15:10;;;;;;;;;;;22.00;45.30;;;;;;4957992;28;45141;-61
2022/05/02 11:18:04;;;;;;;7.68;3.10;;;22.00;45.20;;;;;;4958015;28;45246;-61
2022/05/02 11:20:54;;;;;;;6.45;3.10;;;22.00;45.20;;;;;;4922064;28;45070;-61
2022/05/02 11:23:46;;;;;;;9.00;3.13;;;22.00;45.30;;;;;;4953774;28;46204;-60
2022/05/02 11:26:37;;;;;;;6.13;2.95;;;22.00;45.30;;;;;;4911513;28;45390;-61
2022/05/02 11:29:25;;;;;;;6.43;3.17;;;22.00;45.30;;;;;;4937889;28;45239;-60
2022/05/02 11:31:58;;;;;;;7.13;3.30;;;22.00;45.00;;;;;;4939250;28;44808;-61
2022/05/02 11:34:51;;;;;;;5.55;3.45;;;22.10;45.20;;;;;;4938597;28;46030;-60
2022/05/02 11:37:35;;;;;;;;;;;22.10;45.20;;;;;;4934060;28;45379;-61
2022/05/02 11:40:10;;;;;;;3.80;2.78;;;22.00;44.80;;;;;;4953121;28;45156;-61
2022/05/02 11:42:42;;;;;;;6.43;3.55;;;22.10;44.80;;;;;;4954944;28;45220;-61
2022/05/02 11:45:12;;;;;;;4.47;3.25;;;22.10;44.90;;;;;;4938791;28;46277;-61
2022/05/02 11:48:08;;;;;;;5.10;3.10;;;22.00;44.80;;;;;;4956270;28;45343;-61
2022/05/02 11:50:49;;;;;;;6.60;3.15;;;22.10;44.60;;;;;;4942117;28;45232;-61
2022/05/02 11:53:16;;;;;;;4.45;3.20;;;22.10;44.70;;;;;;4956148;28;44900;-61
2022/05/02 11:55:43;;;;;;;5.35;3.28;;;22.00;44.90;;;;;;4938205;28;45157;-61
2022/05/02 11:58:12;;;;;;;4.32;3.25;;;22.10;44.90;;;;;;4940756;28;45950;-61
2022/05/02 12:00:38;;;;;;;6.28;3.58;;;22.10;45.40;;;;;;4952525;28;44894;-60
2022/05/02 12:03:11;;;;;;;4.40;3.00;;;22.00;44.80;;;;;;4907171;28;45334;-61
2022/05/02 12:05:37;;;;;;;4.82;3.35;;;22.10;44.70;;;;;;4957296;28;45590;-61
2022/05/02 12:08:04;;;;;;;3.67;3.33;;;22.00;44.70;;;;;;4953142;28;45148;-61
2022/05/02 12:11:08;;;;;;;4.18;3.22;;;22.10;44.70;;;;;;4923347;28;45260;-61
2022/05/02 12:13:44;;;;;;;5.82;3.17;;;22.10;44.30;;;;;;4912947;28;45752;-59
2022/05/02 12:16:17;;;;;;;4.85;3.08;;;22.10;44.60;;;;;;4933288;28;45395;-60
2022/05/02 12:18:55;;;;;;;5.57;3.30;;;22.10;44.70;;;;;;4927668;28;45719;-60
2022/05/02 12:21:40;;;;;;;3.90;3.33;;;22.10;44.70;;;;;;4940346;28;45783;-59
2022/05/02 12:24:07;;;;;;;6.47;2.80;;;22.10;44.50;;;;;;4915971;28;45329;-60
2022/05/02 12:26:34;;;;;;;3.97;3.00;;;22.10;44.40;;;;;;4928538;28;45525;-60
2022/05/02 12:29:04;;;;;;;3.63;2.95;;;22.10;44.40;;;;;;4931418;28;45656;-61
2022/05/02 12:31:36;;;;;;;4.13;3.05;;;22.10;44.40;;;;;;4929804;28;45615;-61
2022/05/02 12:34:09;;;;;;;5.43;2.92;;;22.20;44.40;;;;;;4913081;28;45257;-60
2022/05/02 12:36:44;;;;;;;5.20;3.08;;;22.20;44.20;;;;;;4913749;28;45483;-60
2022/05/02 12:39:13;;;;;;;6.57;3.22;;;22.20;44.10;;;;;;4942252;28;45322;-59
2022/05/02 12:41:49;;;;;;;4.82;2.90;;;22.20;44.10;;;;;;4910719;28;45274;-60
2022/05/02 12:44:15;;;;;;;3.85;3.25;;;22.20;44.00;;;;;;4946788;28;45238;-59
2022/05/02 12:46:44;;;;;;;4.57;3.15;;;22.20;44.00;;;;;;4926399;28;45404;-60
2022/05/02 12:49:30;;;;;;;4.50;3.03;;;22.20;43.90;;;;;;4927545;28;44764;-60
2022/05/02 12:51:56;;;;;;;4.65;3.20;;;22.20;43.60;;;;;;4899283;28;44969;-60
2022/05/02 12:54:25;;;;;;;4.93;3.30;;;22.20;43.90;;;;;;4897474;28;45057;-60
2022/05/02 13:02:53;;;;;;;3.90;3.20;;;22.20;43.50;;;;;;4916820;28;45595;-60
2022/05/02 13:05:21;;;;;;;3.72;2.70;;;22.20;43.80;;;;;;4948712;28;45606;-61
2022/05/02 13:07:47;;;;;;;3.30;3.00;;;22.20;43.80;;;;;;4916480;28;45611;-61
2022/05/02 13:10:22;;;;;;;4.45;3.00;;;22.20;43.80;;;;;;4952372;28;44693;-61
2022/05/02 13:13:05;;;;;;;4.05;2.75;;;22.20;43.60;;;;;;4959952;28;45218;-61
2022/05/02 13:15:45;;;;;;;4.65;2.95;;;22.20;43.40;;;;;;4959094;28;44862;-60
2022/05/02 13:18:21;;;;;;;3.90;2.90;;;22.20;43.70;;;;;;4927476;28;45650;-60
2022/05/02 13:20:57;;;;;;;5.28;2.97;;;22.30;44.20;;;;;;4939474;28;45351;-61
2022/05/02 13:23:22;;;;;;;5.03;3.45;;;22.30;43.60;;;;;;4947190;28;45257;-60
2022/05/02 13:26:00;;;;;;;4.00;2.88;;;22.20;43.80;;;;;;4930096;28;45071;-61
2022/05/02 13:28:55;;;;;;;5.18;3.05;;;22.20;43.50;;;;;;4928451;28;45460;-61
2022/05/02 13:31:36;;;;;;;3.72;3.30;;;22.20;43.40;;;;;;4944105;28;44954;-61
2022/05/02 13:34:04;;;;;;;3.38;2.92;;;22.20;43.60;;;;;;4933191;28;45375;-61
2022/05/02 13:36:30;;;;;;;5.68;2.78;;;22.20;43.80;;;;;;4914969;28;45379;-61
2022/05/02 13:39:05;;;;;;;4.80;3.13;;;22.20;43.70;;;;;;4916126;28;45359;-60
2022/05/02 13:41:59;;;;;;;5.53;3.10;;;22.20;43.60;;;;;;4916059;28;45665;-61
2022/05/02 13:44:47;;;;;;;3.83;2.28;;;22.20;43.80;;;;;;4930972;28;45190;-63
2022/05/02 13:47:13;;;;;;;3.65;2.72;;;22.20;43.70;;;;;;4939052;28;44749;-61
2022/05/02 13:49:57;;;;;;;3.95;3.22;;;22.20;43.90;;;;;;4948847;28;46935;-59
2022/05/02 13:52:30;;;;;;;4.20;2.90;;;22.20;43.80;;;;;;4951220;28;44842;-61
2022/05/02 13:54:56;;;;;;;4.68;2.92;;;22.20;43.90;;;;;;4933082;28;45778;-61
2022/05/02 13:57:35;;;;;;;4.47;2.90;;;22.20;44.00;;;;;;4930694;28;45141;-62
2022/05/02 14:01:18;;;;;;;3.28;2.70;;;22.20;43.70;;;;;;4933930;28;46229;-60
2022/05/02 14:03:50;;;;;;;4.53;2.80;;;22.20;43.90;;;;;;4937473;28;45839;-61
2022/05/02 14:06:22;;;;;;;4.72;2.42;;;22.20;43.70;;;;;;4949889;28;45794;-61
2022/05/02 14:08:48;;;;;;;3.97;2.97;;;22.20;43.90;;;;;;4918577;28;45739;-60
2022/05/02 14:11:17;;;;;;;2.78;2.55;;;22.20;43.90;;;;;;4930292;28;46176;-62
2022/05/02 14:13:46;;;;;;;4.13;3.00;;;22.20;43.90;;;;;;4918590;28;45508;-61
2022/05/02 14:16:12;;;;;;;3.05;2.72;;;22.20;43.90;;;;;;4934217;28;45804;-61
2022/05/02 14:18:54;;;;;;;3.17;2.88;;;22.20;43.90;;;;;;4919048;28;45615;-61
2022/05/02 14:21:21;;;;;;;3.35;2.92;;;22.20;43.60;;;;;;4935014;28;45360;-60
2022/05/02 14:23:54;;;;;;;5.18;3.15;;;22.20;43.90;;;;;;4955709;28;45315;-60
2022/05/02 14:26:23;;;;;;;;;;;22.20;43.90;;;;;;4950310;28;46213;-60
2022/05/02 14:28:50;;;;;;;3.45;2.78;;;22.20;43.60;;;;;;4932322;28;45453;-62
2022/05/02 14:31:16;;;;;;;3.85;2.50;;;22.20;43.90;;;;;;4932291;28;45122;-60
2022/05/02 14:33:42;;;;;;;4.97;2.78;;;22.20;43.90;;;;;;4917133;28;45327;-61
2022/05/02 14:36:09;;;;;;;3.78;2.70;;;22.20;43.80;;;;;;4931601;28;45157;-61
2022/05/02 14:38:37;;;;;;;3.75;2.72;;;22.30;43.80;;;;;;4932502;28;45150;-61
2022/05/02 14:41:03;;;;;;;2.60;2.40;;;22.30;43.60;;;;;;4929560;28;45401;-61
2022/05/02 14:43:29;;;;;;;5.05;2.92;;;22.30;43.40;;;;;;4916890;28;45727;-61
2022/05/02 14:45:55;;;;;;;3.55;2.30;;;22.30;43.40;;;;;;4932420;28;45565;-60
2022/05/02 14:48:21;;;;;;;3.20;2.67;;;22.30;43.50;;;;;;4933920;28;45322;-61
2022/05/02 14:51:08;;;;;;;3.53;2.90;;;22.30;43.50;;;;;;4929803;28;45816;-61
2022/05/02 14:53:41;;;;;;;4.78;2.67;;;22.30;43.90;;;;;;4926224;28;44976;-61
2022/05/02 14:56:12;;;;;;;3.20;2.90;;;22.30;43.40;;;;;;4943352;28;45876;-61
2022/05/02 14:58:39;;;;;;;2.67;2.22;;;22.30;43.40;;;;;;4943593;28;45583;-62
2022/05/02 15:01:16;;;;;;;2.55;2.35;;;22.30;43.50;;;;;;4928732;28;45593;-61
2022/05/02 15:03:43;;;;;;;2.60;2.40;;;22.30;43.50;;;;;;4931319;28;44744;-60
2022/05/02 15:06:09;;;;;;;3.15;2.60;;;22.30;43.60;;;;;;4946229;28;45482;-61
2022/05/02 15:08:57;;;;;;;3.10;2.60;;;22.30;43.60;;;;;;4947855;28;45231;-60
2022/05/02 15:12:00;;;;;;;2.83;2.60;;;22.30;43.50;;;;;;4937214;28;45267;-61
2022/05/02 15:14:53;;;;;;;2.38;2.13;;;22.20;43.50;;;;;;4921331;28;45233;-60
2022/05/02 15:17:25;;;;;;;3.47;2.40;;;22.30;43.60;;;;;;4921451;28;45756;-61
2022/05/02 15:20:03;;;;;;;3.15;2.50;;;22.20;43.70;;;;;;4947840;28;45152;-60
2022/05/02 15:22:32;;;;;;;2.75;2.33;;;22.20;43.60;;;;;;4921337;28;46887;-61
2022/05/02 15:25:09;;;;;;;3.35;2.08;;;22.20;43.70;;;;;;4923726;28;45516;-61
2022/05/02 15:39:06;;;;;;;3.72;1.92;;;22.30;43.70;;;;;;4922755;28;45114;-61
2022/05/02 15:41:44;;;;;;;2.65;2.35;;;22.30;43.60;;;;;;4941692;28;45544;-60
2022/05/02 15:44:17;;;;;;;3.70;2.33;;;22.30;43.70;;;;;;4951932;28;45331;-59
2022/05/02 15:46:49;;;;;;;2.67;2.45;;;22.30;43.80;;;;;;4938592;28;45088;-60
2022/05/02 15:49:15;;;;;;;3.28;2.55;;;22.30;43.80;;;;;;4936924;28;45122;-60
2022/05/02 15:51:47;;;;;;;2.63;2.30;;;22.30;43.80;;;;;;4951871;28;45654;-58
2022/05/02 15:54:18;;;;;;;2.30;2.10;;;22.30;43.80;;;;;;4945624;28;45462;-62
2022/05/02 15:57:17;;;;;;;2.35;2.15;;;22.30;43.80;;;;;;4953822;28;45431;-59
2022/05/02 15:59:46;;;;;;;3.55;2.10;;;22.40;43.70;;;;;;4952240;28;45363;-59
2022/05/02 16:02:19;;;;;;;4.80;2.15;;;22.40;43.90;;;;;;4917578;28;45538;-59
2022/05/02 16:04:55;;;;;;;3.05;2.40;;;22.40;43.70;;;;;;4951977;28;45922;-59
2022/05/02 16:10:34;;;;;;;2.35;2.13;;;22.40;43.80;;;;;;4942806;28;44678;-59
2022/05/02 16:13:00;;;;;;;4.20;2.20;;;22.40;43.70;;;;;;4951645;28;45353;-60
2022/05/02 16:15:26;;;;;;;3.28;2.50;;;22.40;43.80;;;;;;4951199;28;45301;-58
2022/05/02 16:18:11;;;;;;;3.35;2.58;;;22.40;43.80;;;;;;4940279;28;45269;-60
2022/05/02 16:20:41;;;;;;;2.40;2.20;;;22.40;43.40;;;;;;4911891;28;44704;-60
2022/05/02 16:23:08;;;;;;;2.97;2.25;;;22.40;43.70;;;;;;4927530;28;45220;-59
2022/05/02 16:25:36;;;;;;;2.60;2.00;;;22.40;43.70;;;;;;4954391;28;45304;-59
2022/05/02 16:28:12;;;;;;;2.10;1.90;;;22.40;43.70;;;;;;4932069;28;44728;-60
2022/05/02 16:30:38;;;;;;;3.45;2.35;;;22.40;43.60;;;;;;4950287;28;46187;-60
2022/05/02 16:33:03;;;;;;;3.83;2.28;;;22.40;43.70;;;;;;4939543;28;45187;-58
2022/05/02 16:35:29;;;;;;;2.38;2.17;;;22.40;43.70;;;;;;4918198;28;45686;-60
2022/05/02 16:37:55;;;;;;;3.13;2.30;;;22.40;43.80;;;;;;4920048;28;45156;-59
2022/05/02 16:40:27;;;;;;;2.28;2.08;;;22.40;43.70;;;;;;4930046;28;44936;-60
2022/05/02 16:43:02;;;;;;;3.28;2.00;;;22.40;43.70;;;;;;4948513;28;45268;-59
2022/05/02 16:45:28;;;;;;;;;;;22.40;43.60;;;;;;4918931;28;45405;-60
2022/05/02 16:47:56;;;;;;;3.30;1.90;;;22.40;43.50;;;;;;4934524;28;45223;-61
2022/05/02 16:50:31;;;;;;;2.25;1.92;;;22.30;43.50;;;;;;4951883;28;45165;-60
2022/05/02 16:52:58;;;;;;;2.63;2.08;;;22.40;43.50;;;;;;4944980;28;44711;-59
2022/05/02 16:55:25;;;;;;;1.80;1.70;;;22.30;43.50;;;;;;4931250;28;45486;-59
2022/05/02 16:57:56;;;;;;;2.63;2.22;;;22.40;43.70;;;;;;4933424;28;45411;-59
2022/05/02 17:00:26;;;;;;;2.78;2.20;;;22.30;43.70;;;;;;4934134;28;45380;-59
2022/05/02 17:02:53;;;;;;;4.97;2.47;;;22.30;43.70;;;;;;4938354;28;45458;-60
2022/05/02 17:05:20;;;;;;;1.92;1.73;;;22.30;43.70;;;;;;4934049;28;45156;-60
2022/05/02 17:07:50;;;;;;;5.50;2.00;;;22.30;43.70;;;;;;4936113;28;44779;-61